Time;durP1;ratioP1;P1;durP2;ratioP2;P2;SDS_P1;SDS_P2;PMS_P1;PMS_P2;Temp;Humidity;BMP_temperature;BMP_pressure;BME280_temperature;BME280_humidity;BME280_pressure;Samples;Min_cycle;Max_cycle;Signal;HPM_P1;HPM_P2
2022/05/16 00:02:53;;;;;;;2.00;1.80;;;;;;;17.47;58.90;97096.56;6074809;23;20235;-95
2022/05/16 00:05:40;;;;;;;2.00;1.73;;;;;;;13.89;58.72;96463.88;6076276;23;20201;-96
2022/05/16 00:08:34;;;;;;;1.60;1.50;;;;;;;12.56;58.28;96232.78;6105698;23;20155;-96
2022/05/16 00:11:16;;;;;;;2.20;1.90;;;;;;;17.03;58.73;97022.91;6107728;23;20159;-96
2022/05/16 00:14:20;;;;;;;2.37;1.87;;;;;;;17.33;59.10;97082.47;6109188;23;20179;-96
2022/05/16 00:17:01;;;;;;;3.93;1.90;;;;;;;14.78;58.69;96603.25;6091077;23;20171;-96
2022/05/16 00:19:50;;;;;;;1.90;1.70;;;;;;;14.48;59.18;96580.97;6127329;23;20155;-96
2022/05/16 00:22:51;;;;;;;4.07;1.70;;;;;;;15.63;58.94;96720.66;6108645;23;20161;-96
2022/05/16 00:25:52;;;;;;;;;;;;;;;;;;;;;
2022/05/16 00:29:12;;;;;;;1.63;1.47;;;;;;;16.03;58.80;96764.47;6097088;23;20182;-96
2022/05/16 00:32:15;;;;;;;1.60;1.50;;;;;;;15.89;58.69;96855.94;6014607;23;20169;-96
2022/05/16 00:35:04;;;;;;;1.70;1.60;;;;;;;20.44;58.87;97538.78;5968268;23;20166;-96
2022/05/16 00:38:19;;;;;;;2.73;1.90;;;;;;;12.78;58.72;96253.06;5863764;24;20204;-96
2022/05/16 00:41:16;;;;;;;2.47;1.77;;;;;;;12.22;59.08;96248.84;5881964;24;20161;-95
2022/05/16 00:48:18;;;;;;;2.17;1.90;;;;;;;16.52;59.03;96903.28;5867605;24;20166;-96
2022/05/16 00:51:00;;;;;;;2.53;1.70;;;;;;;15.74;59.52;96840.09;5848560;24;20209;-96
2022/05/16 00:54:04;;;;;;;1.90;1.60;;;;;;;15.39;58.76;96716.25;5879347;24;20192;-95
2022/05/16 00:56:50;;;;;;;2.73;1.77;;;;;;;14.34;58.80;96541.63;5905997;24;20168;-96
2022/05/16 00:59:23;;;;;;;2.00;1.80;;;;;;;15.58;58.97;96790.53;5878223;24;20168;-96
2022/05/16 01:05:48;;;;;;;2.10;1.70;;;;;;;15.87;58.89;96908.22;5894596;24;20210;-96
2022/05/16 01:09:01;;;;;;;2.13;1.67;;;;;;;15.98;58.90;96836.03;5902666;23;20161;-96
2022/05/16 01:12:08;;;;;;;2.30;1.70;;;;;;;15.43;59.12;96719.00;6050497;23;20163;-96
2022/05/16 01:15:18;;;;;;;2.00;1.80;;;;;;;15.75;59.19;96831.72;6088332;23;20222;-96
2022/05/16 01:18:10;;;;;;;2.07;1.57;;;;;;;20.42;59.14;97616.09;6124932;23;20198;-96
2022/05/16 01:24:15;;;;;;;2.13;1.80;;;;;;;20.41;59.18;97533.56;6149597;23;20182;-95
2022/05/16 01:27:09;;;;;;;;;;;;;;;;;;;;;
2022/05/16 01:29:52;;;;;;;2.20;1.50;;;;;;;17.54;59.53;97046.88;6110235;23;20214;-95
2022/05/16 01:32:32;;;;;;;2.00;1.50;;;;;;;13.96;58.69;96433.06;6022655;23;20191;-96
2022/05/16 01:35:32;;;;;;;2.80;1.70;;;;;;;19.00;58.97;97406.84;6042544;23;20195;-92
2022/05/16 01:38:22;;;;;;;1.60;1.50;;;;;;;15.72;58.74;96771.66;5998026;23;20161;-96
2022/05/16 01:40:53;;;;;;;2.13;1.77;;;;;;;14.48;58.50;96577.59;6020407;23;20157;-96
2022/05/16 01:43:31;;;;;;;2.07;1.47;;;;;;;15.71;58.83;96815.53;6040458;23;20164;-96
2022/05/16 01:49:24;;;;;;;2.83;2.03;;;;;;;13.38;58.79;96327.94;6035075;23;20213;-95
2022/05/16 01:52:04;;;;;;;2.13;1.80;;;;;;;14.19;59.18;96479.47;6040586;23;20172;-96
2022/05/16 01:55:19;;;;;;;;;;;;;;;;;;;;;
2022/05/16 01:57:55;;;;;;;1.90;1.70;;;;;;;14.64;58.62;96590.03;6047398;23;20157;-95
2022/05/16 02:00:58;;;;;;;1.77;1.60;;;;;;;15.68;58.90;96730.94;5992282;23;20161;-96
2022/05/16 02:03:46;;;;;;;2.40;1.60;;;;;;;15.84;58.93;96800.00;6053262;23;20195;-96
2022/05/16 02:10:19;;;;;;;1.93;1.77;;;;;;;14.64;58.89;96535.28;6101885;23;20171;-96
2022/05/16 02:13:03;;;;;;;2.03;1.77;;;;;;;16.84;58.93;96918.94;6105143;23;20159;-96
2022/05/16 02:15:58;;;;;;;;;;;;;;;;;;;;;
2022/05/16 02:18:50;;;;;;;1.90;1.70;;;;;;;14.73;59.00;96544.03;6112941;23;20158;-96
2022/05/16 04:32:49;;;;;;;1.70;1.60;;;;;;;15.07;58.97;96691.31;6148149;23;20191;-91
2022/05/16 04:38:01;;;;;;;2.23;1.53;;;;;;;17.14;58.53;97057.16;6123006;23;20191;-93
2022/05/16 04:40:27;;;;;;;2.50;1.80;;;;;;;17.54;58.27;97077.38;6098983;23;20175;-93
2022/05/16 04:42:54;;;;;;;1.53;1.43;;;;;;;16.52;58.54;96908.38;6050702;23;20155;-94
2022/05/16 04:45:43;;;;;;;2.07;1.60;;;;;;;20.43;58.88;97569.34;6044823;23;20193;-93
2022/05/16 04:48:11;;;;;;;2.17;1.50;;;;;;;16.72;58.60;96935.38;6120669;23;20258;-92
2022/05/16 04:50:38;;;;;;;1.80;1.70;;;;;;;17.20;58.95;97052.31;6104030;23;20163;-90
2022/05/16 04:53:25;;;;;;;1.43;1.33;;;;;;;20.42;59.09;97559.94;6105441;23;20211;-95
2022/05/16 04:55:52;;;;;;;1.50;1.40;;;;;;;16.81;58.67;96931.50;6126332;23;20207;-92
2022/05/16 04:58:20;;;;;;;1.60;1.50;;;;;;;17.58;59.11;97064.84;6104381;23;20187;-94
2022/05/16 05:01:01;;;;;;;1.60;1.50;;;;;;;15.93;59.04;96809.66;6108657;23;20179;-91
2022/05/16 05:03:28;;;;;;;3.90;1.57;;;;;;;19.19;59.03;97340.47;6102758;23;20179;-93
2022/05/16 05:16:46;;;;;;;8.47;2.53;;;;;;;17.09;59.44;96994.34;6109536;23;20207;-93
2022/05/16 05:19:12;;;;;;;6.57;2.33;;;;;;;15.80;59.57;96777.03;6101575;23;20165;-94
2022/05/16 05:24:27;;;;;;;4.37;1.90;;;;;;;17.81;60.03;97134.31;6137927;23;20198;-93
2022/05/16 05:26:53;;;;;;;4.60;2.80;;;;;;;17.53;59.87;97090.88;6078196;23;20183;-93
2022/05/16 05:40:31;;;;;;;5.47;2.27;;;;;;;17.18;59.30;97040.38;6119954;23;20150;-90
2022/05/16 05:43:05;;;;;;;4.27;2.47;;;;;;;19.59;59.25;97440.50;6047195;23;20164;-93
2022/05/16 05:45:33;;;;;;;2.97;2.37;;;;;;;17.27;59.19;97059.38;6042864;23;20242;-90
2022/05/16 05:48:01;;;;;;;4.57;1.97;;;;;;;15.27;59.12;96708.16;6042996;23;20188;-91
2022/05/16 05:50:35;;;;;;;7.27;2.37;;;;;;;17.41;59.18;97039.59;6044859;23;20223;-91
2022/05/16 05:53:02;;;;;;;2.90;2.27;;;;;;;17.96;59.28;97148.47;6042476;23;20161;-90
2022/05/16 05:55:29;;;;;;;5.33;2.30;;;;;;;14.95;59.03;96637.69;6066277;23;20184;-90
2022/05/16 05:57:57;;;;;;;2.43;1.90;;;;;;;18.84;59.39;97325.63;6042856;23;20218;-92
2022/05/16 06:00:24;;;;;;;3.23;2.13;;;;;;;17.32;59.19;97087.50;6043254;23;20228;-92
2022/05/16 06:02:55;;;;;;;3.37;2.30;;;;;;;20.55;59.60;97603.84;6042608;23;20182;-92
2022/05/16 06:05:25;;;;;;;2.57;2.13;;;;;;;15.70;59.23;96785.94;6043012;23;20223;-91
2022/05/16 06:07:55;;;;;;;2.93;2.20;;;;;;;16.86;59.39;96990.03;6066340;23;20180;-91
2022/05/16 06:10:22;;;;;;;2.80;2.03;;;;;;;16.23;59.38;96848.88;6066109;23;20161;-92
2022/05/16 06:12:49;;;;;;;2.60;2.00;;;;;;;14.52;59.41;96542.38;6042478;23;20161;-89
2022/05/16 06:15:16;;;;;;;5.83;2.17;;;;;;;20.53;59.47;97582.47;6066832;23;20184;-91
2022/05/16 06:17:43;;;;;;;2.87;1.80;;;;;;;19.00;59.42;97306.66;6067237;23;20176;-91
2022/05/16 06:20:11;;;;;;;4.50;2.30;;;;;;;17.22;59.31;97071.03;6092574;23;20172;-91
2022/05/16 06:22:38;;;;;;;5.03;2.23;;;;;;;19.03;59.34;97322.06;6064089;23;20176;-93
2022/05/16 06:27:55;;;;;;;1.67;1.57;;;;;;;17.27;58.48;97061.03;6071677;23;20160;-92
2022/05/16 06:30:22;;;;;;;2.23;1.90;;;;;;;19.77;58.35;97512.56;6067429;23;20184;-93
2022/05/16 06:32:49;;;;;;;2.43;1.90;;;;;;;16.16;58.38;96859.56;6067427;23;20179;-92
2022/05/16 06:35:16;;;;;;;4.23;1.67;;;;;;;17.31;58.29;97075.59;6067745;23;20200;-93
2022/05/16 06:37:43;;;;;;;3.20;1.60;;;;;;;16.85;58.40;97013.69;6046035;23;20218;-93
2022/05/16 06:40:11;;;;;;;3.83;1.90;;;;;;;17.43;58.18;97142.09;6091713;23;20176;-94
2022/05/16 06:42:39;;;;;;;2.37;1.90;;;;;;;17.42;58.44;97092.09;6091675;23;20197;-93
2022/05/16 06:45:06;;;;;;;2.10;1.90;;;;;;;20.54;58.60;97624.22;6068075;23;20178;-93
2022/05/16 06:47:33;;;;;;;5.33;2.20;;;;;;;16.14;58.28;96886.53;6068333;23;20167;-93
2022/05/16 06:50:00;;;;;;;2.43;1.80;;;;;;;17.22;58.18;97057.44;6068144;23;20172;-92
2022/05/16 06:52:27;;;;;;;2.83;2.23;;;;;;;16.45;58.22;96930.06;6067874;23;20168;-93
2022/05/16 06:54:54;;;;;;;2.30;2.00;;;;;;;18.01;58.33;97192.72;6091476;23;20189;-93
2022/05/16 06:57:21;;;;;;;2.43;1.80;;;;;;;18.50;58.26;97316.69;6068420;23;20194;-91
2022/05/16 06:59:48;;;;;;;3.43;2.10;;;;;;;17.25;58.12;97090.59;6068044;23;20178;-92
2022/05/16 07:02:15;;;;;;;4.10;2.10;;;;;;;17.48;58.43;97163.50;6068633;23;20161;-92
2022/05/16 07:04:42;;;;;;;3.63;1.90;;;;;;;17.16;58.52;97054.69;6069421;23;20185;-93
2022/05/16 07:07:12;;;;;;;2.10;1.90;;;;;;;18.78;58.21;97334.72;6068884;23;20172;-92
2022/05/16 07:09:39;;;;;;;2.53;1.83;;;;;;;16.00;58.48;96880.91;6068624;23;20164;-93
2022/05/16 07:12:07;;;;;;;2.83;2.00;;;;;;;16.37;58.13;96965.22;6069051;23;20156;-94
2022/05/16 07:14:38;;;;;;;2.23;2.00;;;;;;;16.34;58.44;96956.63;6091929;23;20236;-93
2022/05/16 07:17:06;;;;;;;2.67;2.17;;;;;;;16.77;58.21;96982.94;6092136;23;20169;-94
2022/05/16 07:19:36;;;;;;;2.37;1.90;;;;;;;18.11;58.43;97220.22;6067876;23;20161;-92
2022/05/16 07:22:10;;;;;;;3.20;1.90;;;;;;;16.44;58.34;96935.97;6091651;23;20167;-94
2022/05/16 07:24:39;;;;;;;2.83;1.97;;;;;;;14.86;58.24;96716.56;6115332;23;20186;-92
2022/05/16 07:29:52;;;;;;;1.90;1.70;;;;;;;18.31;58.33;97264.22;6092242;23;20161;-94
2022/05/16 07:32:19;;;;;;;2.43;1.63;;;;;;;17.63;58.31;97151.38;6068038;23;20176;-93
2022/05/16 07:34:46;;;;;;;2.63;1.80;;;;;;;18.89;58.52;97420.84;6067983;23;20180;-92
2022/05/16 07:37:13;;;;;;;1.70;1.60;;;;;;;17.31;58.17;97098.44;6068329;23;20207;-94
2022/05/16 07:39:40;;;;;;;2.97;1.97;;;;;;;17.40;58.38;97135.22;6068125;23;20204;-94
2022/05/16 07:42:08;;;;;;;2.93;2.07;;;;;;;15.70;58.26;96840.78;6068143;23;20176;-94
2022/05/16 07:44:36;;;;;;;3.50;1.80;;;;;;;17.31;58.12;97117.09;6091394;23;20183;-93
2022/05/16 07:47:03;;;;;;;2.10;1.97;;;;;;;16.85;58.45;97032.34;6090558;23;20207;-93
2022/05/16 07:49:31;;;;;;;2.73;1.83;;;;;;;16.42;58.17;96946.00;6090992;23;20156;-92
2022/05/16 07:51:58;;;;;;;2.07;1.90;;;;;;;15.03;58.14;96793.16;6067806;23;20236;-93
2022/05/16 07:54:24;;;;;;;3.07;2.00;;;;;;;17.37;57.90;97135.09;6067241;23;20180;-93
2022/05/16 07:56:52;;;;;;;2.10;1.63;;;;;;;18.23;58.22;97325.78;6068827;23;20172;-93
2022/05/16 07:59:19;;;;;;;2.43;1.80;;;;;;;16.24;58.66;96967.22;6069171;23;20230;-93
2022/05/16 08:01:46;;;;;;;3.03;2.20;;;;;;;17.29;58.35;97206.72;6068302;23;20168;-93
2022/05/16 08:04:14;;;;;;;3.93;2.10;;;;;;;17.34;58.37;97127.38;6091172;23;20184;-92
2022/05/16 08:06:41;;;;;;;2.00;1.80;;;;;;;18.86;58.37;97405.47;6067944;23;20172;-93
2022/05/16 08:11:53;;;;;;;2.40;1.90;;;;;;;19.70;58.34;97565.81;6092001;23;20152;-92
2022/05/16 08:14:20;;;;;;;3.00;1.80;;;;;;;20.03;58.76;97612.97;6067676;23;20181;-94
2022/05/16 08:16:48;;;;;;;2.33;1.93;;;;;;;17.51;58.41;97230.56;6068701;23;20195;-93
2022/05/16 08:19:16;;;;;;;2.07;1.80;;;;;;;18.66;58.32;97420.81;6068658;23;20152;-94
2022/05/16 08:21:43;;;;;;;2.57;1.90;;;;;;;14.59;58.09;96735.63;6092555;23;20156;-93
2022/05/16 18:20:56;;;;;;;1.70;1.60;;;;;;;19.41;45.78;97403.31;6146955;23;20194;-92
2022/05/16 18:23:24;;;;;;;2.40;1.63;;;;;;;21.20;46.26;97704.00;6074605;23;20214;-92
2022/05/16 18:25:52;;;;;;;1.70;1.47;;;;;;;19.81;46.75;97471.03;6070325;23;20191;-90
2022/05/16 18:28:22;;;;;;;1.87;1.50;;;;;;;19.49;47.52;97427.38;6068548;23;20196;-90
2022/05/16 18:30:49;;;;;;;1.80;1.60;;;;;;;19.73;47.69;97458.84;6090532;23;20254;-90
